Time;durP1;ratioP1;P1;durP2;ratioP2;P2;SDS_P1;SDS_P2;PMS_P1;PMS_P2;Temp;Humidity;BMP_temperature;BMP_pressure;BME280_temperature;BME280_humidity;BME280_pressure;Samples;Min_cycle;Max_cycle;Signal;HPM_P1;HPM_P2
2020/12/18 00:00:57;;;;;;;2.27;1.20;;;18.90;59.00;;;;;;4997601;28;20819;-60
2020/12/18 00:03:24;;;;;;;2.57;1.30;;;18.90;59.10;;;;;;5003494;28;20228;-60
2020/12/18 00:05:52;;;;;;;2.80;1.37;;;18.90;59.00;;;;;;4996550;28;20239;-60
2020/12/18 00:08:18;;;;;;;1.70;1.60;;;18.90;59.00;;;;;;5003926;28;20238;-60
2020/12/18 00:10:44;;;;;;;1.77;1.20;;;18.80;59.00;;;;;;4996868;28;20236;-60
2020/12/18 00:13:10;;;;;;;2.30;1.30;;;18.80;59.10;;;;;;5005582;28;20228;-60
2020/12/18 00:15:37;;;;;;;2.20;1.33;;;18.80;59.00;;;;;;4996878;28;20220;-60
2020/12/18 00:18:03;;;;;;;4.03;1.50;;;18.80;59.10;;;;;;5003191;28;20703;-60
2020/12/18 00:20:51;;;;;;;1.80;1.27;;;18.80;59.00;;;;;;4996602;28;20251;-60
2020/12/18 00:23:18;;;;;;;2.60;1.20;;;18.70;59.10;;;;;;5003419;28;20680;-60
2020/12/18 00:25:49;;;;;;;2.93;1.33;;;18.70;59.10;;;;;;4996034;28;20254;-59
2020/12/18 00:28:16;;;;;;;1.77;1.17;;;18.70;59.10;;;;;;5003297;28;20231;-59
2020/12/18 00:30:43;;;;;;;2.73;1.70;;;18.70;59.30;;;;;;5005214;28;20626;-60
2020/12/18 00:33:10;;;;;;;2.83;1.60;;;18.70;59.20;;;;;;4999190;28;20227;-59
2020/12/18 00:35:36;;;;;;;2.70;1.60;;;18.70;59.20;;;;;;5006793;28;20719;-59
2020/12/18 00:38:02;;;;;;;3.23;1.50;;;18.70;59.20;;;;;;4999839;28;21190;-59
2020/12/18 00:40:29;;;;;;;2.97;1.37;;;18.60;59.20;;;;;;5008168;28;20219;-60
2020/12/18 00:42:56;;;;;;;2.10;1.30;;;18.60;59.10;;;;;;4998647;28;20227;-60
2020/12/18 00:45:22;;;;;;;2.73;1.40;;;18.60;59.20;;;;;;5007738;28;20238;-60
2020/12/18 00:47:49;;;;;;;1.40;1.30;;;18.60;59.20;;;;;;4998837;28;20278;-59
2020/12/18 00:50:18;;;;;;;2.40;1.17;;;18.60;59.20;;;;;;5006558;28;20231;-61
2020/12/18 00:52:45;;;;;;;2.17;1.20;;;18.60;59.20;;;;;;4998990;28;20255;-60
2020/12/18 00:55:11;;;;;;;1.67;1.40;;;18.60;59.20;;;;;;5008352;28;20273;-61
2020/12/18 00:57:37;;;;;;;2.00;1.20;;;18.60;59.10;;;;;;4999039;28;20224;-59
2020/12/18 01:00:06;;;;;;;2.77;1.30;;;18.60;59.20;;;;;;5007629;28;20237;-60
2020/12/18 01:02:32;;;;;;;2.07;1.40;;;18.60;59.20;;;;;;4998525;28;20623;-59
2020/12/18 01:04:58;;;;;;;2.57;1.40;;;18.60;59.20;;;;;;5008263;28;20585;-59
2020/12/18 01:07:25;;;;;;;2.33;1.20;;;18.50;59.20;;;;;;4998340;28;20310;-60
2020/12/18 01:09:51;;;;;;;2.10;1.20;;;18.50;59.20;;;;;;5007595;28;20698;-60
2020/12/18 01:12:18;;;;;;;2.77;1.50;;;18.50;59.30;;;;;;5007101;28;20593;-61
2020/12/18 01:14:44;;;;;;;3.37;1.50;;;18.50;59.30;;;;;;4995013;28;20598;-60
2020/12/18 01:17:11;;;;;;;1.90;1.20;;;18.50;59.30;;;;;;5006688;28;20219;-60
2020/12/18 01:19:37;;;;;;;2.23;1.50;;;18.50;59.30;;;;;;5000738;28;20935;-60
2020/12/18 01:22:03;;;;;;;2.13;1.30;;;18.50;59.30;;;;;;5006247;28;20757;-61
2020/12/18 01:24:30;;;;;;;3.10;1.77;;;18.50;59.30;;;;;;4999681;28;20232;-61
2020/12/18 01:26:56;;;;;;;2.60;1.40;;;18.40;59.40;;;;;;5007719;28;20222;-60
2020/12/18 01:29:22;;;;;;;2.40;1.20;;;18.40;59.30;;;;;;4982852;28;20227;-59
2020/12/18 01:31:49;;;;;;;1.60;1.17;;;18.50;59.40;;;;;;4996490;28;20239;-60
2020/12/18 01:34:15;;;;;;;2.00;1.40;;;18.50;59.40;;;;;;4998043;28;20612;-61
2020/12/18 01:36:41;;;;;;;2.13;1.00;;;18.40;59.40;;;;;;4987131;28;20227;-60
2020/12/18 01:39:07;;;;;;;2.20;1.40;;;18.40;59.40;;;;;;4979464;28;20225;-60
2020/12/18 01:41:34;;;;;;;2.27;1.27;;;18.40;59.50;;;;;;4984646;28;20599;-58
2020/12/18 01:44:00;;;;;;;2.00;1.10;;;18.40;59.40;;;;;;4978479;28;20708;-60
2020/12/18 01:46:29;;;;;;;2.43;1.50;;;18.40;59.40;;;;;;4986356;28;20607;-61
2020/12/18 01:48:56;;;;;;;2.43;1.20;;;18.40;59.40;;;;;;4986111;28;20251;-60
2020/12/18 01:51:23;;;;;;;2.20;1.17;;;18.40;59.40;;;;;;4978428;28;20269;-59
2020/12/18 01:53:51;;;;;;;2.47;1.27;;;18.40;59.40;;;;;;4999520;28;20223;-60
2020/12/18 01:56:18;;;;;;;1.60;1.10;;;18.40;59.50;;;;;;4997454;28;20815;-59
2020/12/18 01:58:47;;;;;;;1.80;1.30;;;18.30;59.50;;;;;;5004597;28;20220;-59
2020/12/18 02:01:13;;;;;;;1.40;1.10;;;18.30;59.50;;;;;;4981546;28;20243;-59
2020/12/18 02:03:39;;;;;;;2.53;1.07;;;18.30;59.50;;;;;;4988937;28;20224;-61
2020/12/18 02:06:09;;;;;;;1.30;1.10;;;18.30;59.50;;;;;;4982468;28;20711;-60
2020/12/18 02:08:39;;;;;;;2.43;1.20;;;18.30;59.60;;;;;;4999980;28;20223;-61
2020/12/18 02:11:06;;;;;;;2.00;1.27;;;18.30;59.60;;;;;;4978855;28;20239;-60
2020/12/18 02:13:32;;;;;;;2.60;1.33;;;18.30;59.50;;;;;;4995461;28;20226;-60
2020/12/18 02:15:59;;;;;;;2.03;1.30;;;18.30;59.60;;;;;;4991364;28;20217;-61
2020/12/18 02:18:25;;;;;;;2.60;1.20;;;18.30;59.60;;;;;;4987499;28;20598;-60
2020/12/18 02:20:51;;;;;;;1.67;1.13;;;18.30;59.60;;;;;;4976343;28;20233;-59
2020/12/18 02:23:18;;;;;;;1.33;1.00;;;18.30;59.50;;;;;;4986035;28;20265;-61
2020/12/18 02:25:58;;;;;;;1.77;1.13;;;18.30;59.50;;;;;;4979098;28;20259;-60
2020/12/18 02:28:24;;;;;;;1.43;1.00;;;18.20;59.50;;;;;;4984066;28;21527;-60
2020/12/18 02:30:51;;;;;;;2.37;1.17;;;18.30;59.60;;;;;;4996100;28;20239;-59
2020/12/18 02:33:17;;;;;;;1.60;1.10;;;18.20;59.50;;;;;;4988210;28;20216;-60
2020/12/18 02:35:44;;;;;;;1.67;1.37;;;18.20;59.50;;;;;;4986651;28;20724;-61
2020/12/18 02:38:11;;;;;;;1.70;1.10;;;18.20;59.50;;;;;;4977649;28;20286;-61
2020/12/18 02:40:37;;;;;;;3.50;1.30;;;18.20;59.60;;;;;;4986640;28;20224;-60
2020/12/18 02:43:03;;;;;;;1.97;1.07;;;18.20;59.60;;;;;;4983171;28;20259;-60
2020/12/18 02:45:30;;;;;;;2.30;1.07;;;18.20;59.60;;;;;;5005854;28;20711;-60
2020/12/18 02:47:56;;;;;;;1.23;0.90;;;18.20;59.60;;;;;;4975351;28;20239;-61
2020/12/18 02:50:22;;;;;;;0.80;0.80;;;18.20;59.60;;;;;;4986308;28;20228;-60
2020/12/18 02:52:48;;;;;;;2.00;1.20;;;18.20;59.60;;;;;;4985957;28;20238;-59
2020/12/18 02:55:14;;;;;;;2.50;1.27;;;18.20;59.60;;;;;;5005743;28;20226;-60
2020/12/18 02:57:41;;;;;;;1.87;1.20;;;18.20;59.60;;;;;;4995346;28;20867;-59
2020/12/18 03:00:07;;;;;;;1.63;1.00;;;18.10;59.60;;;;;;5006638;28;20230;-60
2020/12/18 03:02:35;;;;;;;1.30;0.97;;;18.10;59.60;;;;;;4996291;28;20228;-61
2020/12/18 03:05:03;;;;;;;1.33;1.03;;;18.10;59.60;;;;;;5006682;28;20223;-60
2020/12/18 03:07:29;;;;;;;1.80;0.90;;;18.10;59.50;;;;;;4996947;28;20223;-60
2020/12/18 03:09:58;;;;;;;2.57;1.10;;;18.10;59.60;;;;;;5005027;28;20593;-59
2020/12/18 03:12:26;;;;;;;2.27;1.10;;;18.10;59.60;;;;;;5004836;28;20243;-61
2020/12/18 03:14:52;;;;;;;4.10;1.20;;;18.10;59.60;;;;;;5000083;28;20222;-61
2020/12/18 03:17:24;;;;;;;1.60;1.17;;;18.10;59.60;;;;;;5002614;28;20258;-61
2020/12/18 03:19:50;;;;;;;1.40;1.17;;;18.10;59.70;;;;;;4997396;28;20227;-61
2020/12/18 03:22:16;;;;;;;1.93;1.20;;;18.10;59.70;;;;;;5021379;28;20226;-61
2020/12/18 03:24:42;;;;;;;1.57;1.00;;;18.10;59.70;;;;;;4998887;28;20222;-60
2020/12/18 03:27:09;;;;;;;1.20;0.90;;;18.10;59.70;;;;;;5004407;28;20228;-60
2020/12/18 03:29:35;;;;;;;2.13;1.10;;;18.10;59.70;;;;;;4999213;28;20245;-60
2020/12/18 03:32:01;;;;;;;2.33;1.13;;;18.10;59.60;;;;;;5005684;28;20234;-60
2020/12/18 03:34:28;;;;;;;2.43;1.13;;;18.10;59.70;;;;;;4998987;28;20227;-60
2020/12/18 03:36:54;;;;;;;2.23;0.97;;;18.10;59.70;;;;;;4998974;28;20231;-60
2020/12/18 03:39:20;;;;;;;4.07;1.07;;;18.00;59.60;;;;;;4976708;28;20236;-60
2020/12/18 03:41:47;;;;;;;2.53;1.20;;;18.00;59.70;;;;;;4985100;28;20589;-60
2020/12/18 03:44:14;;;;;;;1.43;1.00;;;18.00;59.70;;;;;;4978435;28;20227;-60
2020/12/18 03:46:41;;;;;;;3.57;1.27;;;18.00;59.70;;;;;;4985261;28;20256;-60
2020/12/18 03:49:07;;;;;;;1.17;0.80;;;18.00;59.70;;;;;;4984482;28;20689;-60
2020/12/18 03:51:33;;;;;;;3.17;1.10;;;18.00;59.50;;;;;;4988706;28;20236;-60
2020/12/18 03:53:59;;;;;;;2.20;1.00;;;18.00;59.50;;;;;;4984438;28;20231;-60
2020/12/18 03:56:26;;;;;;;2.10;1.23;;;18.00;59.60;;;;;;4978227;28;20228;-60
2020/12/18 03:58:52;;;;;;;1.37;0.80;;;18.00;59.60;;;;;;4983536;28;20228;-61
2020/12/18 04:01:18;;;;;;;1.93;1.10;;;18.00;59.60;;;;;;4980507;28;20624;-60
2020/12/18 04:03:45;;;;;;;1.60;1.17;;;18.00;59.60;;;;;;4984359;28;20220;-60
2020/12/18 04:06:11;;;;;;;1.67;1.10;;;18.00;59.70;;;;;;4982597;28;20219;-60
2020/12/18 04:08:37;;;;;;;1.43;1.00;;;17.90;59.60;;;;;;4988559;28;20227;-59
2020/12/18 04:11:07;;;;;;;1.20;0.80;;;18.00;59.50;;;;;;5001444;28;20714;-61
2020/12/18 04:13:34;;;;;;;2.13;0.80;;;18.00;59.50;;;;;;5009990;28;20757;-59
2020/12/18 04:16:01;;;;;;;1.17;0.83;;;18.00;59.60;;;;;;5001010;28;20229;-61
2020/12/18 04:18:27;;;;;;;1.37;1.00;;;18.00;59.50;;;;;;5008210;28;20228;-61
2020/12/18 04:20:53;;;;;;;1.60;1.00;;;18.00;59.50;;;;;;5000663;28;20711;-60
2020/12/18 04:23:19;;;;;;;2.23;1.10;;;17.90;59.40;;;;;;5008301;28;20750;-61
2020/12/18 04:25:46;;;;;;;2.30;1.07;;;18.00;59.40;;;;;;5003265;28;20239;-61
2020/12/18 04:28:12;;;;;;;2.73;0.90;;;17.90;59.40;;;;;;5008842;28;20224;-60
2020/12/18 04:30:38;;;;;;;2.13;1.20;;;17.90;59.30;;;;;;5008513;28;20231;-59
2020/12/18 04:33:05;;;;;;;2.43;0.97;;;17.90;59.30;;;;;;4999268;28;20226;-60
2020/12/18 04:35:31;;;;;;;1.83;1.10;;;17.90;59.30;;;;;;5010316;28;20219;-60
2020/12/18 04:37:59;;;;;;;1.87;1.13;;;17.90;59.40;;;;;;5000830;28;20662;-61
2020/12/18 04:40:27;;;;;;;3.20;1.20;;;17.90;59.40;;;;;;5003873;28;20231;-61
2020/12/18 04:42:54;;;;;;;3.00;1.10;;;17.90;59.40;;;;;;5000198;28;20231;-60
2020/12/18 04:45:21;;;;;;;2.53;1.10;;;17.90;59.50;;;;;;5007543;28;20234;-61
2020/12/18 04:47:48;;;;;;;3.80;1.30;;;17.90;59.50;;;;;;4998876;28;20438;-61
2020/12/18 04:50:15;;;;;;;1.73;0.90;;;17.90;59.50;;;;;;5008316;28;20235;-60
2020/12/18 04:52:42;;;;;;;1.60;0.90;;;17.90;59.60;;;;;;4999797;28;20598;-62
2020/12/18 04:55:14;;;;;;;1.20;0.97;;;17.90;59.50;;;;;;5008869;28;20230;-61
2020/12/18 04:57:43;;;;;;;2.80;0.80;;;17.90;59.50;;;;;;5001457;28;20261;-60
2020/12/18 05:00:09;;;;;;;1.87;0.90;;;17.90;59.50;;;;;;5007038;28;20235;-61
2020/12/18 05:02:36;;;;;;;1.63;0.80;;;17.90;59.40;;;;;;4999654;28;20224;-60
2020/12/18 05:05:02;;;;;;;0.90;0.70;;;17.90;59.50;;;;;;5008836;28;20224;-61
2020/12/18 05:07:29;;;;;;;3.00;1.10;;;17.90;59.50;;;;;;5000932;28;20311;-61
2020/12/18 05:09:55;;;;;;;1.13;0.70;;;17.90;59.40;;;;;;5007824;28;20231;-61
2020/12/18 05:12:21;;;;;;;1.70;1.00;;;17.90;59.30;;;;;;5004638;28;20230;-61
2020/12/18 05:14:48;;;;;;;1.83;0.90;;;17.80;59.50;;;;;;5000591;28;20243;-60
2020/12/18 05:17:14;;;;;;;1.57;0.90;;;17.90;59.30;;;;;;5004864;28;20228;-61
2020/12/18 05:19:44;;;;;;;1.80;0.90;;;17.90;59.30;;;;;;5001277;28;20742;-60
2020/12/18 05:22:12;;;;;;;1.70;0.93;;;17.90;59.30;;;;;;5007936;28;20230;-61
2020/12/18 05:24:39;;;;;;;1.20;0.87;;;17.90;59.30;;;;;;4997945;28;20227;-62
2020/12/18 05:27:08;;;;;;;2.90;0.87;;;17.80;59.10;;;;;;5007659;28;22420;-61
2020/12/18 05:29:38;;;;;;;1.43;0.83;;;17.90;59.20;;;;;;4999070;28;20219;-61
2020/12/18 05:32:04;;;;;;;2.30;0.90;;;17.80;59.10;;;;;;5007988;28;20231;-61
2020/12/18 05:34:31;;;;;;;1.20;0.87;;;17.80;59.10;;;;;;4999781;28;20239;-61
2020/12/18 05:36:59;;;;;;;1.03;0.93;;;17.80;59.10;;;;;;5007978;28;20227;-61
2020/12/18 05:39:25;;;;;;;2.53;1.07;;;17.80;59.00;;;;;;4998894;28;20851;-61
2020/12/18 05:41:57;;;;;;;1.87;1.20;;;17.80;59.10;;;;;;5006851;28;20751;-61
2020/12/18 05:44:30;;;;;;;1.57;0.80;;;17.80;59.00;;;;;;4994601;28;20223;-60
2020/12/18 05:47:08;;;;;;;1.27;0.80;;;17.80;59.00;;;;;;5006615;28;20232;-61
2020/12/18 05:49:37;;;;;;;3.57;1.10;;;17.80;59.00;;;;;;4998498;28;20602;-61
2020/12/18 05:52:05;;;;;;;2.23;0.80;;;17.80;59.00;;;;;;5007140;28;20239;-61
2020/12/18 05:54:38;;;;;;;2.27;1.00;;;17.80;59.00;;;;;;4998581;28;20608;-61
2020/12/18 05:57:12;;;;;;;1.27;0.83;;;17.80;58.90;;;;;;5007063;28;20543;-61
2020/12/18 05:59:44;;;;;;;1.87;0.80;;;17.80;58.90;;;;;;4998420;28;20293;-61
2020/12/18 06:02:16;;;;;;;2.57;1.20;;;17.80;58.90;;;;;;5020827;28;20231;-61
2020/12/18 06:04:43;;;;;;;1.60;0.80;;;17.80;58.90;;;;;;4997483;28;20675;-59
2020/12/18 06:07:10;;;;;;;1.83;0.80;;;18.00;59.00;;;;;;5005035;28;20231;-59
2020/12/18 06:09:37;;;;;;;1.30;0.80;;;18.30;58.30;;;;;;5006739;28;20228;-59
2020/12/18 06:12:12;;;;;;;2.20;0.93;;;18.80;57.40;;;;;;4997917;28;20237;-60
2020/12/18 06:14:41;;;;;;;2.67;1.20;;;19.20;56.30;;;;;;4987516;28;21893;-61
2020/12/18 06:17:12;;;;;;;1.93;1.03;;;19.40;55.60;;;;;;4999199;28;20227;-60
2020/12/18 06:19:41;;;;;;;2.20;1.10;;;19.70;55.00;;;;;;5005190;28;20243;-60
2020/12/18 06:22:10;;;;;;;7.73;2.20;;;19.90;54.70;;;;;;4998615;28;20558;-61
2020/12/18 06:24:39;;;;;;;4.73;1.60;;;20.00;54.50;;;;;;5005727;28;20230;-59
2020/12/18 06:27:08;;;;;;;6.97;1.70;;;20.30;53.90;;;;;;4997703;28;20717;-60
2020/12/18 06:29:35;;;;;;;6.77;2.40;;;20.40;53.60;;;;;;5004750;28;20599;-60
2020/12/18 06:32:20;;;;;;;3.73;1.50;;;20.50;53.40;;;;;;4997742;28;20257;-61
2020/12/18 06:34:47;;;;;;;8.00;1.90;;;20.60;53.10;;;;;;5005906;28;21257;-62
2020/12/18 06:37:31;;;;;;;7.27;2.03;;;20.70;52.90;;;;;;4991889;28;20227;-59
2020/12/18 06:39:58;;;;;;;4.80;1.90;;;20.80;52.70;;;;;;4999530;28;20427;-59
2020/12/18 06:42:29;;;;;;;4.63;1.90;;;20.80;52.70;;;;;;4995006;28;20227;-59
2020/12/18 06:45:00;;;;;;;6.77;2.00;;;20.90;52.40;;;;;;5002201;28;20223;-60
2020/12/18 06:47:26;;;;;;;5.70;2.10;;;21.00;52.10;;;;;;4993705;28;21945;-59
2020/12/18 06:49:58;;;;;;;4.67;1.53;;;21.10;52.00;;;;;;5001385;28;20232;-61
2020/12/18 06:52:52;;;;;;;4.97;1.70;;;21.20;51.30;;;;;;4989980;28;20711;-59
2020/12/18 06:55:27;;;;;;;5.77;1.90;;;21.40;51.20;;;;;;5000519;28;20350;-60
2020/12/18 06:58:20;;;;;;;4.53;1.50;;;21.50;51.00;;;;;;4995412;28;20226;-58
2020/12/18 07:00:50;;;;;;;4.40;1.87;;;21.70;51.70;;;;;;4988273;28;20232;-58
2020/12/18 07:03:53;;;;;;;7.10;1.60;;;21.70;51.10;;;;;;4977860;28;20232;-59
2020/12/18 07:06:26;;;;;;;3.23;1.50;;;21.80;50.80;;;;;;4959916;28;20655;-59
2020/12/18 07:08:55;;;;;;;3.87;1.43;;;21.80;50.70;;;;;;4988874;28;20543;-60
2020/12/18 07:11:21;;;;;;;2.83;1.40;;;22.00;50.50;;;;;;5003323;28;20234;-59
2020/12/18 07:13:50;;;;;;;2.97;1.50;;;22.00;50.00;;;;;;4997233;28;20993;-58
2020/12/18 07:16:26;;;;;;;2.93;1.53;;;22.00;49.90;;;;;;5005245;28;20227;-59
2020/12/18 07:18:56;;;;;;;3.07;1.30;;;22.20;49.80;;;;;;4994288;28;20214;-59
2020/12/18 07:21:23;;;;;;;5.90;1.40;;;22.20;50.20;;;;;;5003791;28;20231;-58
2020/12/18 07:23:52;;;;;;;5.40;1.37;;;22.20;49.50;;;;;;4995455;28;20592;-57
2020/12/18 07:26:20;;;;;;;2.47;1.30;;;22.30;50.20;;;;;;5001923;28;20227;-60
2020/12/18 07:28:47;;;;;;;5.27;1.70;;;22.40;48.80;;;;;;4992473;28;20227;-67
2020/12/18 07:31:22;;;;;;;3.97;1.30;;;22.50;48.80;;;;;;5004657;28;20241;-66
2020/12/18 07:33:53;;;;;;;1.83;1.27;;;23.00;48.00;;;;;;4997108;28;20231;-66
2020/12/18 07:36:20;;;;;;;1.63;1.20;;;23.40;47.00;;;;;;5006263;28;20235;-65
2020/12/18 07:38:47;;;;;;;3.87;1.20;;;23.60;46.80;;;;;;4995871;28;20895;-64
2020/12/18 07:41:16;;;;;;;2.53;1.50;;;23.70;46.90;;;;;;5005044;28;20644;-65
2020/12/18 07:43:45;;;;;;;1.40;0.90;;;23.90;46.90;;;;;;5007152;28;20218;-63
2020/12/18 07:46:16;;;;;;;1.87;1.00;;;24.10;46.60;;;;;;5001425;28;20231;-64
2020/12/18 07:48:44;;;;;;;2.63;0.97;;;24.30;46.50;;;;;;5008554;28;20239;-66
2020/12/18 07:51:19;;;;;;;2.20;1.20;;;24.30;46.20;;;;;;4999737;28;20258;-59
2020/12/18 07:53:50;;;;;;;1.50;1.03;;;24.40;46.30;;;;;;5006247;28;21513;-60
2020/12/18 07:56:23;;;;;;;1.90;1.00;;;24.50;46.10;;;;;;4999891;28;20238;-59
2020/12/18 07:59:08;;;;;;;3.17;1.10;;;24.60;45.80;;;;;;5007750;28;20239;-60
2020/12/18 08:01:35;;;;;;;1.93;1.00;;;24.70;45.50;;;;;;4990207;28;20373;-60
2020/12/18 08:04:10;;;;;;;1.90;1.10;;;24.80;45.30;;;;;;5007252;28;20215;-61
2020/12/18 08:06:38;;;;;;;2.07;1.10;;;25.00;44.80;;;;;;4989049;28;20242;-65
2020/12/18 08:09:07;;;;;;;2.53;1.27;;;25.20;44.70;;;;;;4998294;28;20231;-65
2020/12/18 08:11:36;;;;;;;1.47;1.03;;;25.30;44.60;;;;;;4998071;28;20238;-63
2020/12/18 08:14:05;;;;;;;1.90;1.23;;;25.30;44.40;;;;;;5009278;28;20547;-69
2020/12/18 08:16:33;;;;;;;2.60;1.20;;;25.40;44.50;;;;;;4997150;28;20235;-63
2020/12/18 08:19:01;;;;;;;1.73;1.13;;;25.50;44.30;;;;;;5009717;28;20231;-65
2020/12/18 08:21:31;;;;;;;4.10;1.10;;;25.50;44.10;;;;;;4998750;28;20238;-61
2020/12/18 08:24:13;;;;;;;1.80;0.90;;;25.60;44.00;;;;;;5005336;28;20731;-64
2020/12/18 08:27:06;;;;;;;1.50;1.07;;;25.70;43.90;;;;;;4995046;28;20223;-63
2020/12/18 08:29:36;;;;;;;3.27;1.20;;;25.80;43.80;;;;;;4995078;28;20263;-65
2020/12/18 08:32:04;;;;;;;3.20;1.10;;;25.90;43.70;;;;;;4997401;28;20239;-64
2020/12/18 08:34:32;;;;;;;1.30;1.03;;;25.90;43.40;;;;;;5006082;28;20235;-64
2020/12/18 08:37:00;;;;;;;1.90;1.20;;;26.00;43.40;;;;;;4998017;28;20808;-58
2020/12/18 08:39:32;;;;;;;1.70;1.27;;;26.10;43.30;;;;;;5007288;28;20246;-61
2020/12/18 08:41:59;;;;;;;2.23;1.30;;;26.00;42.70;;;;;;4997044;28;20246;-59
2020/12/18 08:44:37;;;;;;;2.80;1.30;;;26.00;42.50;;;;;;5007766;28;20235;-56
2020/12/18 08:47:26;;;;;;;1.70;1.20;;;25.90;42.60;;;;;;5000637;28;20468;-58
2020/12/18 08:49:57;;;;;;;2.43;1.17;;;25.90;42.40;;;;;;5005407;28;21665;-57
2020/12/18 08:52:30;;;;;;;4.20;1.30;;;25.90;42.20;;;;;;4985142;28;20236;-58
2020/12/18 08:55:01;;;;;;;2.83;1.60;;;25.80;42.30;;;;;;4987790;28;20220;-56
2020/12/18 08:57:29;;;;;;;2.57;1.20;;;25.90;42.20;;;;;;4979448;28;20320;-59
2020/12/18 08:59:59;;;;;;;1.23;1.10;;;25.90;42.10;;;;;;4985489;28;20243;-59
2020/12/18 09:02:26;;;;;;;1.17;0.80;;;25.90;42.20;;;;;;4989226;28;20247;-57
2020/12/18 09:05:13;;;;;;;2.07;1.10;;;25.90;42.20;;;;;;4987654;28;20251;-57
2020/12/18 09:08:06;;;;;;;2.33;1.20;;;26.00;42.10;;;;;;4979188;28;21272;-57
2020/12/18 09:10:41;;;;;;;4.03;1.33;;;26.10;42.00;;;;;;4982331;28;21393;-59
2020/12/18 09:13:30;;;;;;;2.57;1.20;;;26.10;41.90;;;;;;4980095;28;20696;-57
2020/12/18 09:15:59;;;;;;;4.73;1.40;;;26.20;41.80;;;;;;4986365;28;20443;-57
2020/12/18 09:18:28;;;;;;;2.53;1.20;;;25.80;42.40;;;;;;4978302;28;20347;-59
2020/12/18 09:20:55;;;;;;;2.03;1.00;;;26.00;42.30;;;;;;5000153;28;20228;-65
2020/12/18 09:23:31;;;;;;;1.03;0.83;;;26.20;42.40;;;;;;4980428;28;20229;-66
2020/12/18 09:26:01;;;;;;;2.43;1.13;;;26.40;42.30;;;;;;4987009;28;20216;-63
2020/12/18 09:28:40;;;;;;;1.90;1.20;;;26.50;42.20;;;;;;4976622;28;20232;-65
2020/12/18 09:31:10;;;;;;;1.17;0.97;;;26.60;42.20;;;;;;4985578;28;20220;-64
2020/12/18 09:33:40;;;;;;;1.67;0.80;;;26.80;42.10;;;;;;4979651;28;20425;-64
2020/12/18 09:36:06;;;;;;;4.97;0.87;;;26.90;42.60;;;;;;4992496;28;20402;-58
2020/12/18 09:38:41;;;;;;;1.20;0.83;;;26.90;41.90;;;;;;4999225;28;20841;-60
2020/12/18 09:41:11;;;;;;;2.83;0.73;;;26.90;42.10;;;;;;4992759;28;20240;-62
2020/12/18 09:43:38;;;;;;;1.53;0.90;;;27.00;42.10;;;;;;5002420;28;20215;-59
2020/12/18 09:46:15;;;;;;;1.77;1.00;;;27.10;41.80;;;;;;4997783;28;20227;-59
2020/12/18 09:48:46;;;;;;;1.70;0.97;;;27.30;41.60;;;;;;5003540;28;20784;-60
2020/12/18 09:51:13;;;;;;;5.20;1.30;;;27.40;41.50;;;;;;4996933;28;20223;-59
2020/12/18 09:53:40;;;;;;;2.80;1.10;;;27.40;41.40;;;;;;5004810;28;20235;-62
2020/12/18 09:56:08;;;;;;;1.93;1.00;;;27.50;41.30;;;;;;4997397;28;20219;-62
2020/12/18 09:58:34;;;;;;;1.90;1.10;;;27.60;41.20;;;;;;5003485;28;20231;-58
2020/12/18 10:01:01;;;;;;;1.17;0.90;;;27.60;41.30;;;;;;4997955;28;20231;-62
2020/12/18 10:03:27;;;;;;;5.10;1.17;;;27.60;41.30;;;;;;5004577;28;20226;-60
2020/12/18 10:05:53;;;;;;;1.30;0.90;;;27.70;41.30;;;;;;4992541;28;20215;-57
2020/12/18 10:08:19;;;;;;;1.53;1.00;;;27.70;41.40;;;;;;5004630;28;20224;-57
2020/12/18 10:10:46;;;;;;;1.63;0.93;;;27.80;41.10;;;;;;4997845;28;20220;-58
2020/12/18 10:13:14;;;;;;;2.20;1.10;;;27.90;41.00;;;;;;5005180;28;20250;-59
2020/12/18 10:15:41;;;;;;;2.20;1.07;;;27.90;41.00;;;;;;4996653;28;20723;-59
2020/12/18 10:18:07;;;;;;;3.27;1.50;;;28.00;40.90;;;;;;5004673;28;20250;-58
2020/12/18 10:20:34;;;;;;;1.90;1.03;;;28.00;40.80;;;;;;4997522;28;20883;-66
2020/12/18 10:23:00;;;;;;;2.13;1.10;;;28.10;40.70;;;;;;5005041;28;20716;-65
2020/12/18 10:25:26;;;;;;;1.10;0.80;;;28.10;40.70;;;;;;5003559;28;20223;-61
2020/12/18 10:27:53;;;;;;;2.00;1.10;;;28.20;40.60;;;;;;4995161;28;20998;-67
2020/12/18 10:30:20;;;;;;;4.87;0.90;;;28.20;40.70;;;;;;5006021;28;20220;-63
2020/12/18 10:32:46;;;;;;;1.43;0.70;;;28.30;40.70;;;;;;4995244;28;20236;-65
2020/12/18 10:35:13;;;;;;;3.07;1.03;;;28.40;40.40;;;;;;5003878;28;20546;-65
2020/12/18 10:37:40;;;;;;;2.10;0.90;;;28.40;40.30;;;;;;4997742;28;20707;-64
2020/12/18 10:40:06;;;;;;;1.60;1.20;;;28.30;40.50;;;;;;5003185;28;20235;-64
2020/12/18 10:42:32;;;;;;;4.07;1.30;;;27.90;40.60;;;;;;4999126;28;20235;-65
2020/12/18 10:44:59;;;;;;;3.17;1.10;;;27.40;41.60;;;;;;5003127;28;20239;-65
2020/12/18 10:47:26;;;;;;;1.40;0.90;;;26.90;42.30;;;;;;5006312;28;20239;-61
2020/12/18 10:49:52;;;;;;;1.27;1.10;;;26.60;42.70;;;;;;5008165;28;20597;-62
2020/12/18 10:52:18;;;;;;;2.50;1.03;;;26.30;42.90;;;;;;5002846;28;20234;-62
2020/12/18 10:54:46;;;;;;;1.50;0.90;;;26.10;43.40;;;;;;5006076;28;20883;-63
2020/12/18 10:57:13;;;;;;;17.20;2.47;;;25.90;43.50;;;;;;4998818;28;20235;-62
2020/12/18 10:59:43;;;;;;;8.23;2.60;;;25.80;47.40;;;;;;5017711;28;20219;-63
2020/12/18 11:02:09;;;;;;;8.20;3.10;;;25.70;46.90;;;;;;4996095;28;20688;-65
2020/12/18 11:04:36;;;;;;;14.90;3.77;;;25.60;46.70;;;;;;5004986;28;20223;-67
2020/12/18 11:07:02;;;;;;;11.40;4.10;;;25.50;46.40;;;;;;5004365;28;20220;-66
2020/12/18 11:09:28;;;;;;;14.37;4.47;;;25.50;46.50;;;;;;4999021;28;20231;-64
2020/12/18 11:11:57;;;;;;;11.43;4.10;;;25.40;46.70;;;;;;5002290;28;20223;-64
2020/12/18 11:14:24;;;;;;;34.27;10.20;;;25.40;46.60;;;;;;4997863;28;20285;-60
2020/12/18 11:16:54;;;;;;;29.37;8.67;;;24.60;44.20;;;;;;5005477;28;20219;-59
2020/12/18 11:19:21;;;;;;;19.43;6.73;;;24.20;44.90;;;;;;4995587;28;20235;-60
2020/12/18 11:21:48;;;;;;;15.10;6.07;;;24.00;45.50;;;;;;5004922;28;20216;-61
2020/12/18 11:24:14;;;;;;;12.50;5.67;;;23.80;45.80;;;;;;4998224;28;20687;-62
2020/12/18 11:26:42;;;;;;;16.10;5.20;;;23.70;46.20;;;;;;5003513;28;20223;-61
2020/12/18 11:29:12;;;;;;;15.03;5.67;;;23.50;46.60;;;;;;4997833;28;20231;-62
2020/12/18 11:31:39;;;;;;;11.80;4.60;;;23.40;47.00;;;;;;5003867;28;20242;-61
2020/12/18 11:34:06;;;;;;;12.17;4.70;;;23.30;47.20;;;;;;4999276;28;20229;-69
2020/12/18 11:36:34;;;;;;;10.50;3.63;;;23.30;48.00;;;;;;5005706;28;20223;-66
2020/12/18 11:39:01;;;;;;;10.90;3.53;;;23.50;48.50;;;;;;4990296;28;20229;-64
2020/12/18 11:41:28;;;;;;;8.20;3.73;;;23.70;49.00;;;;;;5004343;28;20219;-65
2020/12/18 11:43:54;;;;;;;6.27;3.03;;;23.70;48.50;;;;;;4995457;28;20219;-63
2020/12/18 11:46:25;;;;;;;6.77;3.03;;;23.80;48.60;;;;;;5003791;28;20212;-67
2020/12/18 11:48:52;;;;;;;9.23;2.80;;;23.90;48.50;;;;;;5001215;28;21231;-68
2020/12/18 11:51:18;;;;;;;5.50;2.70;;;23.90;48.50;;;;;;4996149;28;20220;-65
2020/12/18 11:53:44;;;;;;;6.13;3.20;;;24.00;48.60;;;;;;5001629;28;20227;-65
2020/12/18 11:56:10;;;;;;;6.60;3.00;;;23.90;48.80;;;;;;4995529;28;20230;-62
2020/12/18 11:58:37;;;;;;;4.87;2.30;;;23.90;48.70;;;;;;5001010;28;20223;-63
2020/12/18 12:01:03;;;;;;;3.70;2.07;;;23.90;48.50;;;;;;4997001;28;20216;-65
2020/12/18 12:03:31;;;;;;;4.43;2.23;;;23.90;48.50;;;;;;5001983;28;20235;-65
2020/12/18 12:06:00;;;;;;;3.27;2.00;;;23.90;48.60;;;;;;4994926;28;20286;-66
2020/12/18 12:08:29;;;;;;;4.83;2.20;;;23.90;48.80;;;;;;5001195;28;21413;-67
2020/12/18 12:10:55;;;;;;;4.67;1.90;;;23.90;48.80;;;;;;4995939;28;20705;-66
2020/12/18 12:13:21;;;;;;;5.13;1.87;;;23.90;48.90;;;;;;5003441;28;20230;-68
2020/12/18 12:15:48;;;;;;;4.60;1.67;;;23.90;48.80;;;;;;4994714;28;20262;-67
2020/12/18 12:18:14;;;;;;;2.83;1.60;;;23.90;48.70;;;;;;4980909;28;20285;-68
2020/12/18 12:20:41;;;;;;;4.03;2.10;;;23.90;48.90;;;;;;4975655;28;20231;-67
2020/12/18 12:23:07;;;;;;;2.73;1.60;;;23.90;48.80;;;;;;4982200;28;20343;-67
2020/12/18 12:25:34;;;;;;;2.50;1.63;;;23.90;48.90;;;;;;4978427;28;20235;-66
2020/12/18 12:28:00;;;;;;;2.57;1.23;;;23.90;48.90;;;;;;4983863;28;20231;-69
2020/12/18 12:30:26;;;;;;;2.83;1.33;;;23.90;48.90;;;;;;4985779;28;20576;-64
2020/12/18 12:32:55;;;;;;;3.63;1.50;;;23.90;48.90;;;;;;4979090;28;20265;-65
2020/12/18 12:35:23;;;;;;;2.53;1.30;;;23.90;49.10;;;;;;4985721;28;20253;-67
2020/12/18 12:37:50;;;;;;;5.27;1.43;;;23.90;48.90;;;;;;4978063;28;20228;-66
2020/12/18 12:40:19;;;;;;;1.87;1.20;;;23.90;48.60;;;;;;4987092;28;20228;-68
2020/12/18 12:42:46;;;;;;;2.00;1.13;;;23.80;48.80;;;;;;4982412;28;20274;-69
2020/12/18 12:45:12;;;;;;;1.53;0.90;;;23.90;48.90;;;;;;4993428;28;20243;-70
2020/12/18 12:47:39;;;;;;;3.77;1.40;;;23.90;49.10;;;;;;4976505;28;22530;-66
2020/12/18 12:50:06;;;;;;;3.60;1.20;;;23.90;48.90;;;;;;4984992;28;20248;-64
2020/12/18 12:52:33;;;;;;;2.30;1.40;;;23.90;48.60;;;;;;4990963;28;20228;-68